Time;durP1;ratioP1;P1;durP2;ratioP2;P2;SDS_P1;SDS_P2;PMS_P1;PMS_P2;Temp;Humidity;BMP_temperature;BMP_pressure;BME280_temperature;BME280_humidity;BME280_pressure;Samples;Min_cycle;Max_cycle;Signal;HPM_P1;HPM_P2
2023/03/19 17:26:15;;;;;;;3.13;1.80;;;;;;;12.73;91.41;96197.97;5146139;27;20537;-70
2023/03/19 17:28:41;;;;;;;4.25;1.73;;;;;;;12.68;89.98;96207.47;5139728;27;20204;-71
2023/03/19 17:31:20;;;;;;;3.45;1.90;;;;;;;12.79;88.33;96202.47;5135120;27;20228;-70
2023/03/19 17:33:47;;;;;;;2.92;1.92;;;;;;;12.66;89.13;96212.94;5146616;27;20198;-70
2023/03/19 17:36:14;;;;;;;10.10;4.00;;;;;;;12.59;89.21;96227.09;5147039;27;20202;-71
2023/03/19 17:38:41;;;;;;;5.95;2.70;;;;;;;12.50;88.60;96225.59;5137857;27;20198;-71
2023/03/19 17:41:13;;;;;;;6.55;2.63;;;;;;;12.48;89.83;96235.56;5133841;27;20221;-71
2023/03/19 17:43:39;;;;;;;5.07;2.47;;;;;;;12.28;90.45;96239.81;5132458;27;20202;-71
2023/03/19 17:46:06;;;;;;;6.38;2.50;;;;;;;12.24;91.27;96235.91;5133113;27;20263;-71
2023/03/19 17:48:33;;;;;;;4.70;2.67;;;;;;;12.19;90.97;96241.78;5134392;27;20225;-71
2023/03/19 17:51:01;;;;;;;5.60;2.17;;;;;;;12.16;92.02;96236.84;5134193;27;20616;-71
2023/03/19 17:53:28;;;;;;;7.53;2.33;;;;;;;12.02;92.01;96238.72;5133056;27;20198;-70
2023/03/19 17:55:55;;;;;;;3.33;2.30;;;;;;;11.90;93.76;96241.03;5135371;27;20209;-71
2023/03/19 17:58:23;;;;;;;3.10;2.30;;;;;;;11.85;95.12;96238.09;5073739;27;20593;-70
2023/03/19 18:00:51;;;;;;;6.03;2.67;;;;;;;11.86;94.78;96239.75;5072336;28;20227;-71
2023/03/19 18:03:20;;;;;;;3.50;2.50;;;;;;;12.21;94.46;96242.38;5073526;28;20605;-71
2023/03/19 18:05:49;;;;;;;3.27;2.50;;;;;;;12.20;93.23;96237.28;5072505;28;20724;-71
2023/03/19 18:08:17;;;;;;;5.40;2.70;;;;;;;12.08;93.02;96243.22;5074026;28;20663;-71
2023/03/19 18:10:44;;;;;;;3.67;2.67;;;;;;;11.76;95.24;96233.94;5073349;28;20220;-72
2023/03/19 18:13:11;;;;;;;3.78;2.60;;;;;;;11.66;96.18;96241.31;5074598;28;20204;-71
2023/03/19 18:15:42;;;;;;;4.80;3.10;;;;;;;11.72;95.34;96251.16;5070531;28;20582;-72
2023/03/19 18:18:15;;;;;;;5.13;3.27;;;;;;;11.71;95.52;96243.38;5073109;28;20291;-72
2023/03/19 18:20:42;;;;;;;4.93;2.90;;;;;;;11.56;95.75;96256.59;5072702;28;20220;-70
2023/03/19 18:23:11;;;;;;;5.27;2.97;;;;;;;11.62;95.70;96250.59;5071638;28;20679;-73
2023/03/19 18:25:38;;;;;;;3.53;2.30;;;;;;;11.54;95.15;96256.97;5071014;28;20236;-70
2023/03/19 18:28:05;;;;;;;4.30;2.90;;;;;;;11.55;95.64;96268.16;5073580;28;20211;-72
2023/03/19 18:30:34;;;;;;;5.57;3.17;;;;;;;11.29;97.65;96271.38;5073877;28;20220;-71
2023/03/19 18:33:05;;;;;;;4.93;3.57;;;;;;;11.26;99.24;96272.56;5073930;28;20671;-71
2023/03/19 18:35:34;;;;;;;4.50;2.90;;;;;;;11.37;98.42;96273.97;5068463;28;20201;-73
2023/03/19 18:38:01;;;;;;;5.17;3.20;;;;;;;11.30;98.56;96267.75;5058371;28;20224;-73
2023/03/19 18:40:31;;;;;;;7.97;3.13;;;;;;;11.43;100.00;96273.22;5057556;28;20224;-70
2023/03/19 18:42:58;;;;;;;5.57;2.90;;;;;;;12.11;100.00;96274.59;5056907;28;20204;-69
2023/03/19 18:45:28;;;;;;;5.83;3.67;;;;;;;12.14;96.68;96274.19;5054896;28;20221;-71
2023/03/19 18:47:55;;;;;;;12.33;3.60;;;;;;;11.90;96.54;96272.69;5058009;28;20215;-72
2023/03/19 18:50:26;;;;;;;7.07;3.70;;;;;;;11.92;96.53;96280.44;5058844;28;20217;-72
2023/03/19 18:52:53;;;;;;;7.00;4.17;;;;;;;11.79;96.72;96280.28;5059849;28;20250;-72
2023/03/19 18:55:23;;;;;;;10.03;4.10;;;;;;;11.73;96.74;96287.06;5058609;28;20203;-71
2023/03/19 18:57:54;;;;;;;5.87;3.60;;;;;;;11.63;97.34;96289.19;5058510;28;20568;-70
2023/03/19 19:00:24;;;;;;;6.00;3.93;;;;;;;11.46;98.05;96305.34;5058880;28;20219;-71
2023/03/19 19:02:51;;;;;;;8.13;4.27;;;;;;;11.20;100.00;96304.94;5057163;28;20200;-71
2023/03/19 19:05:22;;;;;;;7.37;3.40;;;;;;;11.32;100.00;96313.25;5058270;28;20227;-72
2023/03/19 19:07:50;;;;;;;5.53;3.00;;;;;;;11.39;100.00;96329.97;5059112;28;20217;-70
2023/03/19 19:10:17;;;;;;;9.77;3.53;;;;;;;11.38;100.00;96325.69;5058490;28;20232;-71
2023/03/19 19:12:47;;;;;;;6.87;4.20;;;;;;;11.52;100.00;96323.13;5058232;28;20236;-70
2023/03/19 19:15:22;;;;;;;7.00;3.50;;;;;;;11.50;100.00;96324.31;5059376;28;20549;-70
2023/03/19 19:17:49;;;;;;;5.17;3.30;;;;;;;11.56;99.60;96324.41;5057302;28;20196;-71
2023/03/19 19:20:18;;;;;;;10.70;3.73;;;;;;;11.57;99.92;96324.22;5057472;28;20314;-70
2023/03/19 19:22:44;;;;;;;6.37;3.40;;;;;;;11.59;99.45;96331.94;5057413;28;20204;-70
2023/03/19 19:25:16;;;;;;;6.10;3.00;;;;;;;11.63;99.46;96333.22;5053313;28;20227;-71
2023/03/19 19:27:45;;;;;;;4.87;3.20;;;;;;;11.63;99.52;96338.50;5050420;28;20665;-71
2023/03/19 19:30:16;;;;;;;6.97;4.03;;;;;;;11.48;100.00;96339.47;5057320;28;20260;-71
2023/03/19 19:32:44;;;;;;;9.37;4.70;;;;;;;11.42;100.00;96350.72;5056954;28;20285;-70
2023/03/19 19:35:16;;;;;;;8.77;4.70;;;;;;;11.62;100.00;96355.34;5056562;28;20277;-71
2023/03/19 19:37:42;;;;;;;7.13;4.10;;;;;;;11.68;99.49;96351.97;5055473;28;20694;-70
2023/03/19 19:40:12;;;;;;;5.97;3.90;;;;;;;11.66;99.75;96343.44;5056197;28;20231;-70
2023/03/19 19:42:40;;;;;;;10.47;4.27;;;;;;;11.64;100.00;96345.44;5054525;28;20204;-70
2023/03/19 19:45:22;;;;;;;7.33;4.00;;;;;;;11.78;99.60;96353.34;5055097;28;20317;-71
2023/03/19 19:47:48;;;;;;;7.90;4.30;;;;;;;11.68;99.46;96349.34;5054000;28;20680;-70
2023/03/19 19:50:17;;;;;;;7.97;4.67;;;;;;;11.73;99.92;96353.06;5054947;28;20224;-70
2023/03/19 19:52:43;;;;;;;7.00;3.20;;;;;;;11.95;100.00;96349.56;5056905;28;20200;-70
2023/03/19 19:55:10;;;;;;;7.60;4.37;;;;;;;12.50;99.67;96350.66;5055553;28;20204;-68
2023/03/19 19:57:38;;;;;;;5.80;3.63;;;;;;;12.93;95.19;96360.31;5057281;28;20235;-70
2023/03/19 20:00:16;;;;;;;9.73;5.23;;;;;;;12.90;93.17;96360.69;5055635;28;20248;-70
2023/03/19 20:02:43;;;;;;;8.35;5.28;;;;;;;12.36;93.40;96369.19;5053524;28;20691;-71
2023/03/19 20:05:16;;;;;;;13.27;5.87;;;;;;;12.45;93.84;96371.53;5053473;28;20991;-70
2023/03/19 20:07:42;;;;;;;9.70;4.87;;;;;;;12.17;95.13;96375.03;5054524;28;20201;-70
2023/03/19 20:10:10;;;;;;;5.20;3.80;;;;;;;12.13;96.57;96375.56;5054577;28;20228;-71
2023/03/19 20:12:36;;;;;;;8.83;4.00;;;;;;;11.97;98.38;96378.41;5056145;28;20882;-71
2023/03/19 20:15:03;;;;;;;5.97;4.13;;;;;;;11.83;99.73;96382.69;5054217;28;20204;-71
2023/03/19 20:17:31;;;;;;;6.17;3.90;;;;;;;11.76;100.00;96387.06;5056157;28;20315;-71
2023/03/19 20:19:57;;;;;;;5.57;3.83;;;;;;;11.67;100.00;96392.56;5054638;28;20770;-71
2023/03/19 20:22:24;;;;;;;6.40;3.90;;;;;;;11.56;100.00;96385.91;5056467;28;20200;-70
2023/03/19 20:24:50;;;;;;;13.57;4.50;;;;;;;11.62;100.00;96389.66;5055225;28;20210;-70
2023/03/19 20:27:20;;;;;;;7.93;4.77;;;;;;;11.74;100.00;96398.78;5056246;28;20201;-70
2023/03/19 20:29:46;;;;;;;9.37;5.50;;;;;;;11.68;100.00;96391.59;5055412;28;20235;-69
2023/03/19 20:32:25;;;;;;;12.37;6.17;;;;;;;11.79;100.00;96385.88;5055511;28;20593;-70
2023/03/19 20:34:53;;;;;;;25.30;9.30;;;;;;;11.69;100.00;96395.88;5055406;28;20694;-71
2023/03/19 20:37:20;;;;;;;24.83;10.30;;;;;;;11.64;100.00;96395.59;5052658;28;20622;-71
2023/03/19 20:39:46;;;;;;;22.20;9.30;;;;;;;11.67;100.00;96397.84;5056401;28;20227;-70
2023/03/19 20:42:15;;;;;;;19.70;9.00;;;;;;;11.76;100.00;96396.78;5054561;28;20199;-70
2023/03/19 20:44:42;;;;;;;28.73;9.50;;;;;;;11.65;99.96;96405.16;5053571;28;20204;-71
2023/03/19 20:47:15;;;;;;;18.63;7.63;;;;;;;11.80;99.41;96408.59;5054902;28;21027;-70
2023/03/19 20:49:41;;;;;;;7.83;3.83;;;;;;;11.53;98.94;96406.56;5056658;28;20273;-70
2023/03/19 20:52:10;;;;;;;6.20;3.60;;;;;;;11.83;98.46;96411.72;5055029;28;20208;-70
2023/03/19 20:54:37;;;;;;;6.03;3.63;;;;;;;11.76;98.79;96412.63;5055219;28;20208;-70
2023/03/19 20:57:04;;;;;;;4.23;3.00;;;;;;;11.72;100.00;96414.81;5055308;28;20200;-70
2023/03/19 20:59:31;;;;;;;5.10;2.70;;;;;;;11.62;100.00;96416.88;5054101;28;20229;-71
2023/03/19 21:01:57;;;;;;;4.77;3.20;;;;;;;11.57;100.00;96413.97;5055031;28;20204;-70
2023/03/19 21:04:24;;;;;;;5.87;3.07;;;;;;;11.55;100.00;96420.41;5054842;28;20204;-70
2023/03/19 21:06:50;;;;;;;8.83;3.60;;;;;;;11.65;100.00;96416.50;5055011;28;20604;-70
2023/03/19 21:09:18;;;;;;;8.30;3.37;;;;;;;11.68;100.00;96420.63;5054797;28;20208;-71
2023/03/19 21:11:45;;;;;;;5.37;3.30;;;;;;;11.50;100.00;96416.69;5053341;28;20322;-70
2023/03/19 21:14:15;;;;;;;5.43;3.50;;;;;;;11.54;100.00;96413.47;5052895;28;20282;-70
2023/03/19 21:16:42;;;;;;;6.80;3.23;;;;;;;11.46;100.00;96407.44;5053262;28;20228;-70
2023/03/19 21:19:09;;;;;;;9.00;3.87;;;;;;;11.53;100.00;96419.75;5054299;28;20307;-70
2023/03/19 21:21:37;;;;;;;12.70;4.17;;;;;;;11.53;100.00;96418.94;5053872;28;20227;-70
2023/03/19 21:24:07;;;;;;;7.67;4.00;;;;;;;11.45;100.00;96419.81;5051640;28;20223;-70
2023/03/19 21:26:38;;;;;;;5.17;3.20;;;;;;;11.33;100.00;96415.94;5051845;28;20204;-70
2023/03/19 21:29:07;;;;;;;5.50;3.23;;;;;;;11.41;100.00;96413.25;5053313;28;20207;-70
2023/03/19 21:31:34;;;;;;;7.53;2.90;;;;;;;11.25;100.00;96410.75;5054227;28;20703;-69
2023/03/19 21:34:00;;;;;;;8.47;4.03;;;;;;;11.18;100.00;96411.63;5053690;28;20265;-69
2023/03/19 21:36:27;;;;;;;9.67;3.57;;;;;;;11.04;100.00;96405.28;5054896;28;20681;-69
2023/03/19 21:38:54;;;;;;;7.70;3.97;;;;;;;11.07;100.00;96404.13;5054499;28;20212;-70
2023/03/19 21:41:23;;;;;;;15.03;5.07;;;;;;;11.12;100.00;96414.97;5051609;28;20225;-70
2023/03/19 21:43:54;;;;;;;10.50;4.23;;;;;;;10.99;100.00;96420.81;5052011;28;20223;-70
2023/03/19 21:46:25;;;;;;;16.70;6.10;;;;;;;11.11;100.00;96416.78;5052380;28;20200;-70
2023/03/19 21:48:52;;;;;;;12.37;4.10;;;;;;;11.07;100.00;96414.66;5052362;28;20201;-70
2023/03/19 21:51:19;;;;;;;9.67;4.37;;;;;;;11.07;100.00;96410.22;5063074;28;20228;-70
2023/03/19 21:53:46;;;;;;;14.93;7.27;;;;;;;10.85;100.00;96409.38;5065481;28;20219;-70
2023/03/19 21:56:20;;;;;;;23.00;7.00;;;;;;;10.81;100.00;96416.00;5067064;28;20316;-70
2023/03/19 21:58:48;;;;;;;26.17;8.50;;;;;;;10.82;100.00;96425.53;5067208;28;20621;-70
2023/03/19 22:01:18;;;;;;;6.53;3.53;;;;;;;10.88;100.00;96428.28;5066602;28;20229;-70
2023/03/19 22:03:44;;;;;;;6.27;3.47;;;;;;;10.84;100.00;96418.28;5066217;28;20201;-70
2023/03/19 22:06:12;;;;;;;19.33;4.70;;;;;;;10.88;100.00;96422.22;5066842;28;20207;-70
2023/03/19 22:08:38;;;;;;;9.77;4.50;;;;;;;10.86;100.00;96421.56;5067325;28;20204;-70
2023/03/19 22:11:14;;;;;;;10.33;5.30;;;;;;;10.99;100.00;96417.34;5067505;22;20731;-69
2023/03/19 22:13:42;;;;;;;11.03;4.80;;;;;;;10.82;100.00;96420.25;5030611;28;20250;-68
2023/03/19 22:16:18;;;;;;;6.97;3.70;;;;;;;10.94;100.00;96425.78;5030362;28;20225;-70
2023/03/19 22:18:45;;;;;;;7.93;3.87;;;;;;;10.77;100.00;96430.50;5030483;28;20197;-70
2023/03/19 22:21:15;;;;;;;4.37;2.83;;;;;;;10.94;100.00;96431.06;5031147;28;20899;-71
2023/03/19 22:23:41;;;;;;;7.03;2.80;;;;;;;10.77;100.00;96435.78;5029895;28;20260;-70
2023/03/19 22:26:30;;;;;;;4.60;3.17;;;;;;;10.82;100.00;96439.56;5030830;28;20217;-71
2023/03/19 22:28:59;;;;;;;6.27;3.20;;;;;;;10.76;100.00;96431.53;5030451;28;20229;-71
2023/03/19 22:31:27;;;;;;;5.47;3.27;;;;;;;10.80;100.00;96435.44;5030180;28;20225;-69
2023/03/19 22:33:54;;;;;;;5.53;3.37;;;;;;;10.69;100.00;96435.81;5029882;28;20229;-70
2023/03/19 22:36:20;;;;;;;6.33;3.50;;;;;;;10.72;100.00;96436.31;5028770;28;20226;-70
2023/03/19 22:38:47;;;;;;;8.27;3.67;;;;;;;10.76;100.00;96434.97;5030055;28;20206;-68
2023/03/19 22:41:18;;;;;;;7.87;3.80;;;;;;;10.67;100.00;96435.19;5030472;28;20305;-70
2023/03/19 22:43:45;;;;;;;9.33;3.77;;;;;;;10.61;100.00;96438.50;5030246;28;20212;-70
2023/03/19 22:46:15;;;;;;;5.90;3.60;;;;;;;10.73;100.00;96440.59;5030732;28;20201;-71
2023/03/19 22:48:44;;;;;;;7.20;3.50;;;;;;;10.78;100.00;96435.63;5030395;28;20198;-71
2023/03/19 22:51:16;;;;;;;6.03;3.37;;;;;;;10.69;100.00;96436.66;5030450;28;20720;-69
2023/03/19 22:53:42;;;;;;;5.33;3.30;;;;;;;10.59;100.00;96433.41;5030288;28;20202;-70
2023/03/19 22:56:10;;;;;;;9.53;3.67;;;;;;;10.74;100.00;96429.03;5029983;28;20713;-70
2023/03/19 22:58:37;;;;;;;4.53;3.10;;;;;;;10.72;100.00;96430.22;5030269;28;20209;-68
2023/03/19 23:01:27;;;;;;;5.23;2.90;;;;;;;10.67;100.00;96432.56;5030745;28;20233;-70
2023/03/19 23:03:55;;;;;;;6.43;2.70;;;;;;;10.49;100.00;96430.16;5031529;28;20707;-69
2023/03/19 23:06:26;;;;;;;5.87;2.80;;;;;;;10.54;100.00;96430.47;5029537;28;20202;-69
2023/03/19 23:08:52;;;;;;;5.37;2.70;;;;;;;10.48;100.00;96432.97;5031031;28;20198;-68
2023/03/19 23:11:19;;;;;;;6.63;2.47;;;;;;;10.56;100.00;96436.38;5029363;28;20651;-69
2023/03/19 23:13:45;;;;;;;5.67;3.10;;;;;;;10.54;100.00;96432.28;5028324;28;20678;-70
2023/03/19 23:16:19;;;;;;;3.93;2.73;;;;;;;10.55;100.00;96440.03;5028592;28;20221;-68
2023/03/19 23:18:46;;;;;;;3.57;2.33;;;;;;;10.49;100.00;96440.69;5028544;28;20579;-70
2023/03/19 23:21:16;;;;;;;4.17;2.57;;;;;;;10.51;100.00;96441.38;5028525;28;20670;-70
2023/03/19 23:23:42;;;;;;;3.00;2.50;;;;;;;10.43;100.00;96453.75;5028468;28;20194;-69
2023/03/19 23:26:24;;;;;;;3.27;2.20;;;;;;;10.53;100.00;96449.09;5029211;28;20209;-70
2023/03/19 23:28:51;;;;;;;4.23;2.40;;;;;;;10.44;100.00;96453.56;5030303;28;20202;-68
2023/03/19 23:31:17;;;;;;;4.27;2.80;;;;;;;10.39;100.00;96455.88;5030231;28;20229;-70
2023/03/19 23:33:45;;;;;;;4.13;2.80;;;;;;;10.54;100.00;96451.56;5029933;28;20202;-70
2023/03/19 23:36:11;;;;;;;4.50;2.27;;;;;;;10.51;100.00;96448.44;5030212;28;20221;-70
2023/03/19 23:38:39;;;;;;;4.50;2.13;;;;;;;10.59;100.00;96448.38;5030277;28;20205;-70
2023/03/19 23:41:07;;;;;;;3.63;1.80;;;;;;;10.47;100.00;96457.66;5030130;28;20233;-70
2023/03/19 23:43:35;;;;;;;4.17;1.90;;;;;;;10.56;100.00;96457.44;5029821;28;20206;-69
2023/03/19 23:46:02;;;;;;;4.67;2.07;;;;;;;10.51;100.00;96458.97;5029979;28;20280;-70
2023/03/19 23:48:33;;;;;;;3.63;1.77;;;;;;;10.59;100.00;96456.28;5030101;28;20210;-70
2023/03/19 23:51:00;;;;;;;2.53;1.63;;;;;;;10.55;100.00;96462.91;5030398;28;20233;-70
2023/03/19 23:53:28;;;;;;;1.90;1.47;;;;;;;10.57;100.00;96463.56;5029853;28;20579;-69
2023/03/19 23:55:58;;;;;;;3.73;1.80;;;;;;;10.64;100.00;96461.88;5029594;28;20338;-70
2023/03/19 23:58:30;;;;;;;4.00;1.90;;;;;;;10.59;100.00;96466.84;5029633;28;20206;-70
